Time;durP1;ratioP1;P1;durP2;ratioP2;P2;SDS_P1;SDS_P2;PMS_P1;PMS_P2;Temp;Humidity;BMP_temperature;BMP_pressure;BME280_temperature;BME280_humidity;BME280_pressure;Samples;Min_cycle;Max_cycle;Signal;HPM_P1;HPM_P2
2022/10/15 00:02:17;;;;;;;0.10;0.10;;;;;;;;;;5062094;28;20048;-81
2022/10/15 00:04:47;;;;;;;0.25;0.25;;;;;;;;;;5068710;28;20045;-82
2022/10/15 00:07:15;;;;;;;1.80;0.45;;;;;;;;;;5069331;28;20536;-82
2022/10/15 00:09:43;;;;;;;0.32;0.32;;;;;;;;;;5070426;28;20068;-82
2022/10/15 00:12:13;;;;;;;0.10;0.10;;;;;;;;;;5060680;28;20048;-82
2022/10/15 00:14:41;;;;;;;0.55;0.25;;;;;;;;;;5078951;28;20044;-82
2022/10/15 00:17:09;;;;;;;0.30;0.28;;;;;;;;;;5065546;28;20045;-82
2022/10/15 00:19:38;;;;;;;0.10;0.10;;;;;;;;;;5065527;28;20139;-82
2022/10/15 00:22:06;;;;;;;0.00;0.00;;;;;;;;;;5065998;28;20045;-82
2022/10/15 00:24:34;;;;;;;0.10;0.10;;;;;;;;;;5068371;28;20055;-82
2022/10/15 00:27:03;;;;;;;0.20;0.20;;;;;;;;;;5059899;28;20040;-82
2022/10/15 00:29:32;;;;;;;0.55;0.20;;;;;;;;;;5066959;28;20051;-81
2022/10/15 00:32:00;;;;;;;1.20;0.30;;;;;;;;;;5069740;28;20049;-82
2022/10/15 00:34:29;;;;;;;0.45;0.20;;;;;;;;;;5067742;28;20044;-82
2022/10/15 00:36:57;;;;;;;1.30;1.20;;;;;;;;;;5068327;28;20060;-82
2022/10/15 00:39:26;;;;;;;0.38;0.15;;;;;;;;;;5057153;28;20049;-82
2022/10/15 00:41:54;;;;;;;0.40;0.17;;;;;;;;;;5068417;28;20049;-82
2022/10/15 00:44:41;;;;;;;1.15;1.00;;;;;;;;;;5074191;28;20077;-82
2022/10/15 00:47:15;;;;;;;0.10;0.10;;;;;;;;;;5063097;28;20055;-82
2022/10/15 00:49:45;;;;;;;0.60;0.32;;;;;;;;;;5074335;28;20053;-82
2022/10/15 00:52:16;;;;;;;0.28;0.20;;;;;;;;;;5071789;28;20048;-82
2022/10/15 00:54:45;;;;;;;0.93;0.55;;;;;;;;;;5064931;28;20063;-82
2022/10/15 00:57:14;;;;;;;0.38;0.10;;;;;;;;;;5077539;28;20051;-82
2022/10/15 00:59:44;;;;;;;0.20;0.20;;;;;;;;;;5079041;28;20040;-82
2022/10/15 01:02:14;;;;;;;0.20;0.20;;;;;;;;;;5077833;28;20040;-82
2022/10/15 01:04:42;;;;;;;0.38;0.10;;;;;;;;;;5073568;28;20053;-82
2022/10/15 01:07:11;;;;;;;0.00;0.00;;;;;;;;;;5078894;28;20050;-81
2022/10/15 01:09:41;;;;;;;0.00;0.00;;;;;;;;;;5072589;28;20436;-82
2022/10/15 01:12:12;;;;;;;0.88;0.20;;;;;;;;;;5073990;28;20055;-81
2022/10/15 01:14:46;;;;;;;0.80;0.22;;;;;;;;;;5073058;28;20045;-83
2022/10/15 01:17:20;;;;;;;0.40;0.20;;;;;;;;;;5065476;28;20404;-81
2022/10/15 01:20:11;;;;;;;0.03;0.03;;;;;;;;;;5068805;28;20509;-82
2022/10/15 01:22:46;;;;;;;0.10;0.10;;;;;;;;;;5069372;28;20060;-82
2022/10/15 01:25:19;;;;;;;0.30;0.20;;;;;;;;;;5073023;28;20040;-82
2022/10/15 01:27:50;;;;;;;0.28;0.20;;;;;;;;;;5067493;28;20458;-81
2022/10/15 01:30:24;;;;;;;0.35;0.28;;;;;;;;;;5072279;28;20060;-82
2022/10/15 01:33:03;;;;;;;0.93;0.50;;;;;;;;;;5074431;28;20045;-81
2022/10/15 01:35:35;;;;;;;0.40;0.20;;;;;;;;;;5069435;28;20079;-82
2022/10/15 01:38:08;;;;;;;0.28;0.28;;;;;;;;;;5071650;28;20062;-82
2022/10/15 01:40:39;;;;;;;0.52;0.45;;;;;;;;;;5068238;28;20488;-82
2022/10/15 01:43:10;;;;;;;0.10;0.10;;;;;;;;;;5064885;28;20060;-83
2022/10/15 01:45:41;;;;;;;0.30;0.20;;;;;;;;;;5070752;28;20053;-81
2022/10/15 01:48:11;;;;;;;0.63;0.40;;;;;;;;;;5071697;28;20067;-81
2022/10/15 01:50:40;;;;;;;0.08;0.08;;;;;;;;;;5073193;28;20114;-82
2022/10/15 01:53:09;;;;;;;0.20;0.20;;;;;;;;;;5074215;28;20204;-82
2022/10/15 01:55:38;;;;;;;0.65;0.40;;;;;;;;;;5073825;28;20052;-81
2022/10/15 01:58:07;;;;;;;0.13;0.10;;;;;;;;;;5068982;28;20055;-82
2022/10/15 02:00:35;;;;;;;1.13;0.30;;;;;;;;;;5072449;28;20401;-81
2022/10/15 02:03:05;;;;;;;0.10;0.10;;;;;;;;;;5074746;28;20052;-81
2022/10/15 02:05:36;;;;;;;0.40;0.30;;;;;;;;;;5070762;28;20041;-81
2022/10/15 02:08:08;;;;;;;0.22;0.13;;;;;;;;;;5071125;28;20055;-81
2022/10/15 02:10:40;;;;;;;0.17;0.17;;;;;;;;;;5064797;28;20496;-81
2022/10/15 02:13:14;;;;;;;0.08;0.08;;;;;;;;;;5070105;28;20458;-82
2022/10/15 02:15:46;;;;;;;2.85;0.47;;;;;;;;;;5069862;28;20047;-82
2022/10/15 02:18:17;;;;;;;0.40;0.10;;;;;;;;;;5083266;28;20044;-81
2022/10/15 02:20:49;;;;;;;3.40;2.08;;;;;;;;;;5069266;28;20056;-81
2022/10/15 02:23:19;;;;;;;0.28;0.17;;;;;;;;;;5067331;28;20064;-81
2022/10/15 02:25:48;;;;;;;0.95;0.65;;;;;;;;;;5063827;28;20059;-82
2022/10/15 02:28:17;;;;;;;1.40;0.82;;;;;;;;;;5076355;28;20049;-82
2022/10/15 02:30:47;;;;;;;0.00;0.00;;;;;;;;;;5070906;28;20546;-81
2022/10/15 02:33:17;;;;;;;0.10;0.10;;;;;;;;;;5080677;28;20067;-81
2022/10/15 02:35:46;;;;;;;0.08;0.08;;;;;;;;;;5067725;28;20079;-82
2022/10/15 02:38:18;;;;;;;0.65;0.65;;;;;;;;;;5069903;28;20055;-81
2022/10/15 02:40:47;;;;;;;0.85;0.50;;;;;;;;;;5065199;28;20549;-82
2022/10/15 02:43:17;;;;;;;0.38;0.30;;;;;;;;;;5073940;28;20052;-81
2022/10/15 02:45:46;;;;;;;0.43;0.20;;;;;;;;;;5065021;28;20055;-82
2022/10/15 02:48:14;;;;;;;0.15;0.15;;;;;;;;;;5069822;28;20491;-82
2022/10/15 02:50:44;;;;;;;0.08;0.08;;;;;;;;;;5069122;28;21628;-81
2022/10/15 02:53:12;;;;;;;0.20;0.10;;;;;;;;;;5071078;28;20049;-82
2022/10/15 02:55:40;;;;;;;0.10;0.10;;;;;;;;;;5069476;28;20089;-81
2022/10/15 02:58:08;;;;;;;0.00;0.00;;;;;;;;;;5073848;28;20488;-82
2022/10/15 03:00:37;;;;;;;2.55;0.25;;;;;;;;;;5072058;28;20048;-82
2022/10/15 03:03:05;;;;;;;0.38;0.15;;;;;;;;;;5071725;28;20083;-82
2022/10/15 03:05:34;;;;;;;1.20;0.30;;;;;;;;;;5071493;28;20404;-82
2022/10/15 03:08:04;;;;;;;0.82;0.10;;;;;;;;;;5075284;28;20056;-82
2022/10/15 03:10:32;;;;;;;0.20;0.20;;;;;;;;;;5066414;28;20040;-82
2022/10/15 03:13:03;;;;;;;0.10;0.10;;;;;;;;;;5067083;28;20052;-82
2022/10/15 03:15:31;;;;;;;0.20;0.20;;;;;;;;;;5073079;28;20044;-82
2022/10/15 03:17:59;;;;;;;0.90;0.20;;;;;;;;;;5072544;28;20048;-82
2022/10/15 03:20:28;;;;;;;0.10;0.10;;;;;;;;;;5069855;28;20067;-82
2022/10/15 03:22:56;;;;;;;0.10;0.10;;;;;;;;;;5070929;28;20044;-81
2022/10/15 03:25:26;;;;;;;0.10;0.10;;;;;;;;;;5072444;28;20047;-82
2022/10/15 03:27:55;;;;;;;0.38;0.28;;;;;;;;;;5070400;28;20040;-81
2022/10/15 03:30:23;;;;;;;0.10;0.10;;;;;;;;;;5072512;28;20040;-81
2022/10/15 03:32:51;;;;;;;0.05;0.05;;;;;;;;;;5066701;28;20052;-82
2022/10/15 03:35:19;;;;;;;0.20;0.20;;;;;;;;;;5068146;28;20098;-82
2022/10/15 03:37:47;;;;;;;5.50;0.20;;;;;;;;;;5067859;28;20049;-82
2022/10/15 03:40:16;;;;;;;0.00;0.00;;;;;;;;;;5070565;28;20040;-81
2022/10/15 03:42:50;;;;;;;0.10;0.10;;;;;;;;;;5070153;28;20056;-81
2022/10/15 03:45:18;;;;;;;0.10;0.10;;;;;;;;;;5072146;28;20058;-81
2022/10/15 03:47:47;;;;;;;0.05;0.05;;;;;;;;;;5070214;28;20055;-82
2022/10/15 03:50:15;;;;;;;0.75;0.43;;;;;;;;;;5062167;28;20067;-81
2022/10/15 03:52:44;;;;;;;0.00;0.00;;;;;;;;;;5066570;28;20068;-81
2022/10/15 03:55:12;;;;;;;0.00;0.00;;;;;;;;;;5070149;28;20044;-81
2022/10/15 03:57:41;;;;;;;0.20;0.20;;;;;;;;;;5066630;28;20455;-81
2022/10/15 04:00:13;;;;;;;0.40;0.10;;;;;;;;;;5073401;28;20045;-81
2022/10/15 04:02:41;;;;;;;0.13;0.10;;;;;;;;;;5063541;28;20511;-81
2022/10/15 04:05:09;;;;;;;0.55;0.20;;;;;;;;;;5070091;28;20060;-81
2022/10/15 04:07:37;;;;;;;0.00;0.00;;;;;;;;;;5070336;28;20048;-81
2022/10/15 04:10:06;;;;;;;0.10;0.10;;;;;;;;;;5064431;28;20408;-81
2022/10/15 04:12:34;;;;;;;0.03;0.03;;;;;;;;;;5063808;28;20041;-81
2022/10/15 04:15:03;;;;;;;0.22;0.22;;;;;;;;;;5069036;28;20055;-81
2022/10/15 04:17:33;;;;;;;0.10;0.10;;;;;;;;;;5070467;28;20048;-81
2022/10/15 04:20:01;;;;;;;0.10;0.10;;;;;;;;;;5069357;28;20049;-82
2022/10/15 04:22:29;;;;;;;0.22;0.22;;;;;;;;;;5070331;28;20115;-81
2022/10/15 04:24:58;;;;;;;0.73;0.20;;;;;;;;;;5069415;28;20060;-81
2022/10/15 04:27:26;;;;;;;0.20;0.20;;;;;;;;;;5070771;28;20055;-81
2022/10/15 04:29:55;;;;;;;0.00;0.00;;;;;;;;;;5076227;28;20048;-81
2022/10/15 04:32:23;;;;;;;0.03;0.03;;;;;;;;;;5068713;28;20051;-81
2022/10/15 04:34:53;;;;;;;0.08;0.08;;;;;;;;;;5068797;28;20048;-81
2022/10/15 04:37:21;;;;;;;2.72;0.47;;;;;;;;;;5058932;28;20044;-82
2022/10/15 04:39:50;;;;;;;0.17;0.17;;;;;;;;;;5066911;28;20047;-81
2022/10/15 04:42:18;;;;;;;0.13;0.13;;;;;;;;;;5069366;28;20117;-82
2022/10/15 04:44:47;;;;;;;0.55;0.28;;;;;;;;;;5068315;28;20044;-81
2022/10/15 04:47:15;;;;;;;0.17;0.17;;;;;;;;;;5071644;28;20048;-82
2022/10/15 04:49:43;;;;;;;0.00;0.00;;;;;;;;;;5069089;28;20063;-81
2022/10/15 04:52:13;;;;;;;0.10;0.10;;;;;;;;;;5065022;28;20056;-81
2022/10/15 04:54:42;;;;;;;0.05;0.05;;;;;;;;;;5071830;28;20047;-82
2022/10/15 04:57:10;;;;;;;0.32;0.15;;;;;;;;;;5071235;28;20063;-81
2022/10/15 04:59:38;;;;;;;0.00;0.00;;;;;;;;;;5069958;28;20051;-81
2022/10/15 05:02:06;;;;;;;0.00;0.00;;;;;;;;;;5067727;28;20064;-82
2022/10/15 05:04:35;;;;;;;0.00;0.00;;;;;;;;;;5068644;28;20046;-82
2022/10/15 05:07:03;;;;;;;0.10;0.10;;;;;;;;;;5063667;28;20102;-82
2022/10/15 05:09:33;;;;;;;0.00;0.00;;;;;;;;;;5068426;28;20302;-82
2022/10/15 05:12:04;;;;;;;0.00;0.00;;;;;;;;;;5059281;28;20139;-82
2022/10/15 05:14:34;;;;;;;0.10;0.10;;;;;;;;;;5071252;28;20041;-82
2022/10/15 05:17:03;;;;;;;0.00;0.00;;;;;;;;;;5067673;28;20040;-82
2022/10/15 05:19:31;;;;;;;0.52;0.10;;;;;;;;;;5069819;28;20048;-82
2022/10/15 05:21:59;;;;;;;0.05;0.05;;;;;;;;;;5067498;28;20063;-81
2022/10/15 05:24:27;;;;;;;0.08;0.08;;;;;;;;;;5070272;28;20048;-82
2022/10/15 05:26:57;;;;;;;0.17;0.17;;;;;;;;;;5067335;28;20053;-81
2022/10/15 05:29:25;;;;;;;0.10;0.10;;;;;;;;;;5069060;28;20041;-82
2022/10/15 05:31:54;;;;;;;0.25;0.25;;;;;;;;;;5064847;28;20511;-82
2022/10/15 05:34:22;;;;;;;0.00;0.00;;;;;;;;;;5066602;28;20055;-82
2022/10/15 05:36:50;;;;;;;0.00;0.00;;;;;;;;;;5063106;28;20044;-82
2022/10/15 05:39:19;;;;;;;0.10;0.10;;;;;;;;;;5066979;28;20063;-82
2022/10/15 05:41:48;;;;;;;0.00;0.00;;;;;;;;;;5069052;28;20052;-82
2022/10/15 05:44:17;;;;;;;0.00;0.00;;;;;;;;;;5071370;28;20083;-82
2022/10/15 05:46:46;;;;;;;0.10;0.10;;;;;;;;;;5071591;28;20048;-82
2022/10/15 05:49:14;;;;;;;0.35;0.10;;;;;;;;;;5072926;28;20538;-83
2022/10/15 05:51:42;;;;;;;0.00;0.00;;;;;;;;;;5065865;28;20052;-82
2022/10/15 05:54:11;;;;;;;0.05;0.05;;;;;;;;;;5067629;28;20072;-82
2022/10/15 05:56:39;;;;;;;0.10;0.10;;;;;;;;;;5061352;28;20496;-82
2022/10/15 05:59:07;;;;;;;0.00;0.00;;;;;;;;;;5071841;28;20040;-82
2022/10/15 06:01:37;;;;;;;0.00;0.00;;;;;;;;;;5064972;28;20060;-83
2022/10/15 06:04:05;;;;;;;0.00;0.00;;;;;;;;;;5064041;28;20049;-83
2022/10/15 06:06:34;;;;;;;0.10;0.00;;;;;;;;;;5061439;28;20048;-84
2022/10/15 06:09:02;;;;;;;0.00;0.00;;;;;;;;;;5067528;28;20040;-83
2022/10/15 06:11:30;;;;;;;0.00;0.00;;;;;;;;;;5066238;28;20102;-82
2022/10/15 06:13:59;;;;;;;0.03;0.03;;;;;;;;;;5065585;28;20147;-82
2022/10/15 06:16:27;;;;;;;0.10;0.10;;;;;;;;;;5065571;28;20068;-82
2022/10/15 06:18:57;;;;;;;0.03;0.03;;;;;;;;;;5066986;28;20049;-81
2022/10/15 06:21:25;;;;;;;0.03;0.03;;;;;;;;;;5063170;28;20056;-83
2022/10/15 06:23:54;;;;;;;0.00;0.00;;;;;;;;;;5067489;28;20135;-82
2022/10/15 06:26:22;;;;;;;0.00;0.00;;;;;;;;;;5063853;28;20412;-82
2022/10/15 06:28:50;;;;;;;0.00;0.00;;;;;;;;;;5057456;28;20053;-82
2022/10/15 06:31:18;;;;;;;0.00;0.00;;;;;;;;;;5066051;28;20055;-82
2022/10/15 06:33:47;;;;;;;0.00;0.00;;;;;;;;;;5075815;28;20045;-79
2022/10/15 06:36:16;;;;;;;0.90;0.35;;;;;;;;;;5069108;28;20053;-79
2022/10/15 06:38:45;;;;;;;0.10;0.10;;;;;;;;;;5069469;28;20060;-80
2022/10/15 06:41:13;;;;;;;0.10;0.10;;;;;;;;;;5065579;28;20052;-79
2022/10/15 06:43:41;;;;;;;0.10;0.10;;;;;;;;;;5053982;28;20759;-80
2022/10/15 06:46:10;;;;;;;0.10;0.00;;;;;;;;;;5062688;28;20136;-79
2022/10/15 06:48:38;;;;;;;0.05;0.05;;;;;;;;;;5070097;28;20052;-79
2022/10/15 06:51:06;;;;;;;0.10;0.10;;;;;;;;;;5065796;28;20052;-79
2022/10/15 06:53:39;;;;;;;0.00;0.00;;;;;;;;;;5057988;28;20511;-80
2022/10/15 06:56:08;;;;;;;0.00;0.00;;;;;;;;;;5067297;28;20101;-80
2022/10/15 06:58:36;;;;;;;0.10;0.10;;;;;;;;;;5061090;28;20650;-80
2022/10/15 07:01:10;;;;;;;0.15;0.00;;;;;;;;;;5056341;28;20052;-81
2022/10/15 07:03:39;;;;;;;0.00;0.00;;;;;;;;;;5062013;28;20049;-79
2022/10/15 07:06:13;;;;;;;0.00;0.00;;;;;;;;;;5053838;28;20049;-80
2022/10/15 07:08:43;;;;;;;0.05;0.05;;;;;;;;;;5069399;28;20040;-79
2022/10/15 07:11:18;;;;;;;0.05;0.05;;;;;;;;;;5062955;28;20056;-79
2022/10/15 07:13:47;;;;;;;0.00;0.00;;;;;;;;;;5068946;28;20052;-79
2022/10/15 07:16:15;;;;;;;0.10;0.10;;;;;;;;;;5067525;28;20052;-80
2022/10/15 07:18:43;;;;;;;0.05;0.05;;;;;;;;;;5068305;28;20045;-80
2022/10/15 07:21:12;;;;;;;0.00;0.00;;;;;;;;;;5066103;28;20552;-80
2022/10/15 07:23:48;;;;;;;0.10;0.10;;;;;;;;;;5065243;28;21018;-79
2022/10/15 07:26:16;;;;;;;1.35;0.40;;;;;;;;;;5067068;28;20075;-79
2022/10/15 07:28:44;;;;;;;0.00;0.00;;;;;;;;;;5065302;28;20484;-79
2022/10/15 07:31:13;;;;;;;0.00;0.00;;;;;;;;;;5065371;28;20488;-80
2022/10/15 07:33:43;;;;;;;0.00;0.00;;;;;;;;;;5076341;28;20081;-80
2022/10/15 07:36:12;;;;;;;0.00;0.00;;;;;;;;;;5057605;28;20051;-79
2022/10/15 07:38:41;;;;;;;0.20;0.10;;;;;;;;;;5065107;28;20054;-80
2022/10/15 07:41:11;;;;;;;0.10;0.10;;;;;;;;;;5066489;28;20044;-80
2022/10/15 07:43:40;;;;;;;0.30;0.10;;;;;;;;;;5065822;28;20087;-80
2022/10/15 07:46:08;;;;;;;0.25;0.00;;;;;;;;;;5070483;28;20044;-80
2022/10/15 07:48:36;;;;;;;0.00;0.00;;;;;;;;;;5071106;28;20052;-80
2022/10/15 07:51:06;;;;;;;0.05;0.05;;;;;;;;;;5063615;28;20056;-80
2022/10/15 07:53:34;;;;;;;0.10;0.10;;;;;;;;;;5059541;28;20140;-80
2022/10/15 07:56:05;;;;;;;0.10;0.10;;;;;;;;;;5061687;28;20049;-79
2022/10/15 07:58:36;;;;;;;0.03;0.00;;;;;;;;;;5058258;28;20459;-80
2022/10/15 08:01:05;;;;;;;0.28;0.05;;;;;;;;;;5068544;28;20052;-86
2022/10/15 08:03:33;;;;;;;0.10;0.10;;;;;;;;;;5079997;28;20068;-86
2022/10/15 08:06:02;;;;;;;0.00;0.00;;;;;;;;;;5061770;28;20059;-85
2022/10/15 08:08:32;;;;;;;0.10;0.10;;;;;;;;;;5062029;28;20044;-86
2022/10/15 08:11:04;;;;;;;0.00;0.00;;;;;;;;;;5068405;28;20059;-85
2022/10/15 08:13:34;;;;;;;0.00;0.00;;;;;;;;;;5083938;28;20059;-86
2022/10/15 08:16:02;;;;;;;0.00;0.00;;;;;;;;;;5071153;28;20051;-86
2022/10/15 08:18:31;;;;;;;0.10;0.10;;;;;;;;;;5080382;28;20052;-85
2022/10/15 08:21:00;;;;;;;0.10;0.10;;;;;;;;;;5058864;28;20488;-86
2022/10/15 08:23:29;;;;;;;0.00;0.00;;;;;;;;;;5070794;28;20051;-85
2022/10/15 08:25:59;;;;;;;0.00;0.00;;;;;;;;;;5063683;28;20492;-86
2022/10/15 08:28:27;;;;;;;0.40;0.10;;;;;;;;;;5074889;28;20091;-86
2022/10/15 08:30:59;;;;;;;0.60;0.60;;;;;;;;;;5072981;28;20054;-86
2022/10/15 08:33:33;;;;;;;0.05;0.05;;;;;;;;;;5077577;28;20149;-86
2022/10/15 08:36:01;;;;;;;0.00;0.00;;;;;;;;;;5074445;28;20048;-86
2022/10/15 08:38:30;;;;;;;0.15;0.05;;;;;;;;;;5071005;28;20422;-87
2022/10/15 08:41:00;;;;;;;0.10;0.10;;;;;;;;;;5068993;28;20056;-86
2022/10/15 08:43:31;;;;;;;0.55;0.10;;;;;;;;;;5065557;28;20057;-86
2022/10/15 08:46:02;;;;;;;1.65;0.68;;;;;;;;;;5073100;28;20056;-86
2022/10/15 08:48:31;;;;;;;0.28;0.20;;;;;;;;;;5072210;28;20051;-86
2022/10/15 08:51:02;;;;;;;0.88;0.38;;;;;;;;;;5061402;28;20068;-85
2022/10/15 08:53:30;;;;;;;2.75;0.80;;;;;;;;;;5067983;28;20045;-86
2022/10/15 08:56:01;;;;;;;0.10;0.10;;;;;;;;;;5065562;28;20045;-86
2022/10/15 08:58:35;;;;;;;6.72;1.65;;;;;;;;;;5073998;28;20059;-86
2022/10/15 09:01:12;;;;;;;0.32;0.30;;;;;;;;;;5071643;28;20044;-86
2022/10/15 09:03:45;;;;;;;0.90;0.45;;;;;;;;;;5056482;28;20053;-87
2022/10/15 09:06:16;;;;;;;0.40;0.40;;;;;;;;;;5067361;28;20079;-78
2022/10/15 09:08:49;;;;;;;0.20;0.08;;;;;;;;;;5054329;28;20135;-78
2022/10/15 09:11:20;;;;;;;4.25;1.13;;;;;;;;;;5061663;28;20277;-81
2022/10/15 09:13:49;;;;;;;0.55;0.50;;;;;;;;;;5065680;28;20139;-80
2022/10/15 09:16:20;;;;;;;0.50;0.40;;;;;;;;;;5060580;28;20040;-85
2022/10/15 09:18:51;;;;;;;0.35;0.13;;;;;;;;;;5055133;28;20055;-79
2022/10/15 09:21:20;;;;;;;0.08;0.08;;;;;;;;;;5068482;28;20056;-80
2022/10/15 09:23:48;;;;;;;0.55;0.20;;;;;;;;;;5062460;28;20056;-79
2022/10/15 09:26:21;;;;;;;0.65;0.57;;;;;;;;;;5064537;28;20059;-82
2022/10/15 09:28:52;;;;;;;0.20;0.20;;;;;;;;;;5070600;28;20389;-81
2022/10/15 09:31:24;;;;;;;0.00;0.00;;;;;;;;;;5060195;28;20052;-83
2022/10/15 09:33:54;;;;;;;0.25;0.10;;;;;;;;;;5054711;28;20052;-83
2022/10/15 09:36:30;;;;;;;0.05;0.05;;;;;;;;;;5078255;28;20056;-83
2022/10/15 09:39:03;;;;;;;0.05;0.03;;;;;;;;;;5063420;28;20048;-84
2022/10/15 09:41:38;;;;;;;0.22;0.13;;;;;;;;;;5063880;28;20520;-83
2022/10/15 09:44:12;;;;;;;0.10;0.10;;;;;;;;;;5063344;28;20359;-85
2022/10/15 09:46:48;;;;;;;1.75;0.28;;;;;;;;;;5069228;28;20117;-83
2022/10/15 09:49:18;;;;;;;0.05;0.03;;;;;;;;;;5068945;28;20504;-83
2022/10/15 09:51:49;;;;;;;0.20;0.20;;;;;;;;;;5066222;28;20045;-84
2022/10/15 09:54:22;;;;;;;0.55;0.30;;;;;;;;;;5063789;28;20044;-83
2022/10/15 09:56:53;;;;;;;0.28;0.28;;;;;;;;;;5065977;28;20049;-82
2022/10/15 09:59:22;;;;;;;0.00;0.00;;;;;;;;;;5070343;28;20048;-83
2022/10/15 10:01:59;;;;;;;0.52;0.20;;;;;;;;;;5066770;28;20146;-83
2022/10/15 10:04:28;;;;;;;0.10;0.10;;;;;;;;;;5066976;28;20044;-84
2022/10/15 10:06:57;;;;;;;0.20;0.20;;;;;;;;;;5064147;28;20063;-85
2022/10/15 10:09:29;;;;;;;0.15;0.15;;;;;;;;;;5065972;28;20052;-84
2022/10/15 10:12:00;;;;;;;0.32;0.17;;;;;;;;;;5069861;28;20476;-83
2022/10/15 10:14:30;;;;;;;0.20;0.20;;;;;;;;;;5067359;28;20068;-84
2022/10/15 10:17:15;;;;;;;0.25;0.20;;;;;;;;;;5070151;28;20059;-83
2022/10/15 10:19:43;;;;;;;0.10;0.10;;;;;;;;;;5069395;28;20404;-85
2022/10/15 10:22:16;;;;;;;1.05;0.15;;;;;;;;;;5070458;28;20078;-89
2022/10/15 10:24:45;;;;;;;0.50;0.30;;;;;;;;;;5070023;28;20041;-82
2022/10/15 10:27:21;;;;;;;0.85;0.30;;;;;;;;;;5065807;28;20432;-83
2022/10/15 10:29:53;;;;;;;0.32;0.30;;;;;;;;;;5071789;28;20048;-83
2022/10/15 10:32:25;;;;;;;0.20;0.20;;;;;;;;;;5071491;28;20110;-84
2022/10/15 10:34:53;;;;;;;0.68;0.28;;;;;;;;;;5072297;28;20051;-83
2022/10/15 10:37:23;;;;;;;1.25;0.30;;;;;;;;;;5063438;28;20082;-83
2022/10/15 10:39:55;;;;;;;0.65;0.20;;;;;;;;;;5070064;28;20094;-84
2022/10/15 10:42:25;;;;;;;0.10;0.10;;;;;;;;;;5064728;28;20048;-87
2022/10/15 10:47:53;;;;;;;0.00;0.00;;;;;;;;;;5070424;28;20044;-87
2022/10/15 10:50:27;;;;;;;0.10;0.10;;;;;;;;;;5069894;28;20440;-83
2022/10/15 10:52:56;;;;;;;0.10;0.10;;;;;;;;;;5068575;28;20044;-83
2022/10/15 10:55:25;;;;;;;0.17;0.10;;;;;;;;;;5068445;28;20459;-84
2022/10/15 10:57:54;;;;;;;0.13;0.13;;;;;;;;;;5069381;28;20051;-84
2022/10/15 11:00:26;;;;;;;1.27;0.38;;;;;;;;;;5069010;28;20041;-85
2022/10/15 11:02:57;;;;;;;0.52;0.10;;;;;;;;;;5069655;28;20480;-86
2022/10/15 11:05:26;;;;;;;0.17;0.10;;;;;;;;;;5068930;28;20112;-91
2022/10/15 11:08:12;;;;;;;0.20;0.15;;;;;;;;;;5058837;28;20052;-90
2022/10/15 11:10:58;;;;;;;0.10;0.10;;;;;;;;;;5060564;28;20150;-83
2022/10/15 11:13:44;;;;;;;0.28;0.20;;;;;;;;;;5065326;28;20056;-84
2022/10/15 11:16:16;;;;;;;0.00;0.00;;;;;;;;;;5026451;28;20041;-84
2022/10/15 11:18:52;;;;;;;0.00;0.00;;;;;;;;;;5061599;28;20049;-85
2022/10/15 11:21:25;;;;;;;0.00;0.00;;;;;;;;;;5073856;28;20052;-84
2022/10/15 11:24:03;;;;;;;0.10;0.10;;;;;;;;;;5069783;28;20060;-83
2022/10/15 11:26:40;;;;;;;0.20;0.10;;;;;;;;;;5075890;28;20480;-84
2022/10/15 11:29:30;;;;;;;0.10;0.10;;;;;;;;;;5075334;28;20521;-86
2022/10/15 11:32:04;;;;;;;2.92;0.28;;;;;;;;;;5063169;28;20131;-86
2022/10/15 11:34:50;;;;;;;0.20;0.20;;;;;;;;;;5065647;28;20053;-86
2022/10/15 11:37:25;;;;;;;0.40;0.40;;;;;;;;;;5067912;28;20044;-85
2022/10/15 11:40:01;;;;;;;0.13;0.10;;;;;;;;;;5061784;28;20046;-86
2022/10/15 11:42:34;;;;;;;0.52;0.30;;;;;;;;;;5073332;28;20055;-87
2022/10/15 11:45:20;;;;;;;0.10;0.10;;;;;;;;;;5059544;28;20052;-85
2022/10/15 11:47:51;;;;;;;0.10;0.10;;;;;;;;;;5050220;28;20048;-85
2022/10/15 11:50:29;;;;;;;0.65;0.20;;;;;;;;;;5058413;28;20131;-86
2022/10/15 11:53:04;;;;;;;0.70;0.10;;;;;;;;;;5056688;28;20049;-85
2022/10/15 11:55:35;;;;;;;0.10;0.10;;;;;;;;;;5062280;28;20044;-85
2022/10/15 11:58:07;;;;;;;2.13;0.30;;;;;;;;;;5064711;28;20041;-85
2022/10/15 12:00:37;;;;;;;0.10;0.10;;;;;;;;;;5070576;28;20071;-85
2022/10/15 12:03:07;;;;;;;1.75;0.25;;;;;;;;;;5064227;28;20048;-86
2022/10/15 12:05:39;;;;;;;0.22;0.17;;;;;;;;;;5064748;28;20557;-85
2022/10/15 12:08:10;;;;;;;1.75;0.63;;;;;;;;;;5071490;28;20036;-85
2022/10/15 12:10:47;;;;;;;0.40;0.20;;;;;;;;;;5073584;28;20049;-85
2022/10/15 12:13:19;;;;;;;0.50;0.28;;;;;;;;;;5065418;28;20492;-86
2022/10/15 12:15:50;;;;;;;0.10;0.10;;;;;;;;;;5069974;28;20040;-86
2022/10/15 12:18:22;;;;;;;0.10;0.10;;;;;;;;;;5065392;28;20068;-86
2022/10/15 12:20:54;;;;;;;0.40;0.25;;;;;;;;;;5065231;28;20060;-85
2022/10/15 12:23:26;;;;;;;0.57;0.22;;;;;;;;;;5065912;28;20041;-86
2022/10/15 12:25:54;;;;;;;0.20;0.20;;;;;;;;;;5058252;28;20052;-85
2022/10/15 12:28:24;;;;;;;0.00;0.00;;;;;;;;;;5068651;28;20044;-85
2022/10/15 12:31:00;;;;;;;0.15;0.10;;;;;;;;;;5072443;28;20048;-85
2022/10/15 12:33:39;;;;;;;0.28;0.20;;;;;;;;;;5074762;28;20165;-85
2022/10/15 12:36:23;;;;;;;0.20;0.08;;;;;;;;;;5030895;28;20138;-86
2022/10/15 12:38:56;;;;;;;0.22;0.20;;;;;;;;;;5065469;28;20052;-86
2022/10/15 12:41:35;;;;;;;0.82;0.17;;;;;;;;;;5058696;28;20056;-87
2022/10/15 12:44:09;;;;;;;2.03;0.65;;;;;;;;;;5065056;28;20049;-86
2022/10/15 12:46:39;;;;;;;0.05;0.05;;;;;;;;;;5071646;28;20052;-87
2022/10/15 12:49:22;;;;;;;0.60;0.30;;;;;;;;;;5066338;28;20496;-87
2022/10/15 12:51:52;;;;;;;1.00;0.20;;;;;;;;;;5070185;28;20818;-86
2022/10/15 12:54:34;;;;;;;0.85;0.32;;;;;;;;;;5069284;28;20037;-88
2022/10/15 12:57:03;;;;;;;0.10;0.10;;;;;;;;;;5060921;28;20060;-88
2022/10/15 12:59:52;;;;;;;0.17;0.13;;;;;;;;;;5065497;28;20059;-87
2022/10/15 13:02:35;;;;;;;0.20;0.20;;;;;;;;;;5073315;28;20055;-87
2022/10/15 13:05:04;;;;;;;0.25;0.20;;;;;;;;;;5072965;28;20136;-87
2022/10/15 13:07:35;;;;;;;0.10;0.10;;;;;;;;;;5070360;28;20071;-87
2022/10/15 13:10:04;;;;;;;0.30;0.30;;;;;;;;;;5060546;28;21582;-88
2022/10/15 13:12:33;;;;;;;0.20;0.20;;;;;;;;;;5067911;28;20052;-88
2022/10/15 13:15:04;;;;;;;0.00;0.00;;;;;;;;;;5065254;28;20053;-87
2022/10/15 13:17:33;;;;;;;0.10;0.10;;;;;;;;;;5072819;28;20381;-88
2022/10/15 13:20:04;;;;;;;5.55;0.30;;;;;;;;;;5073440;28;20067;-87
2022/10/15 13:22:33;;;;;;;0.17;0.15;;;;;;;;;;5072828;28;20131;-86
2022/10/15 13:25:03;;;;;;;0.08;0.08;;;;;;;;;;5058352;28;20060;-86
2022/10/15 13:27:36;;;;;;;0.20;0.20;;;;;;;;;;5064779;28;20427;-87
2022/10/15 13:30:05;;;;;;;1.75;0.38;;;;;;;;;;5070374;28;20493;-87
2022/10/15 13:32:36;;;;;;;0.40;0.20;;;;;;;;;;5071190;28;20044;-83
2022/10/15 13:35:10;;;;;;;0.10;0.10;;;;;;;;;;5075837;28;20040;-83
2022/10/15 13:37:39;;;;;;;0.10;0.10;;;;;;;;;;5071688;28;20051;-84
2022/10/15 13:40:09;;;;;;;0.13;0.13;;;;;;;;;;5080920;28;20493;-84
2022/10/15 13:42:37;;;;;;;0.20;0.10;;;;;;;;;;5067723;28;20410;-83
2022/10/15 13:45:15;;;;;;;0.32;0.20;;;;;;;;;;5067940;28;20040;-85
2022/10/15 13:47:48;;;;;;;0.10;0.10;;;;;;;;;;5067370;28;20052;-85
2022/10/15 13:50:21;;;;;;;0.10;0.10;;;;;;;;;;5062412;28;20052;-83
2022/10/15 13:52:50;;;;;;;0.43;0.20;;;;;;;;;;5076406;28;20044;-87
2022/10/15 13:55:22;;;;;;;1.08;0.35;;;;;;;;;;5066231;28;20504;-85
2022/10/15 13:57:51;;;;;;;0.35;0.20;;;;;;;;;;5071388;28;20056;-85
2022/10/15 14:00:21;;;;;;;0.10;0.10;;;;;;;;;;5066866;28;20052;-86
2022/10/15 14:03:04;;;;;;;0.82;0.25;;;;;;;;;;5068691;28;20066;-85
2022/10/15 14:05:33;;;;;;;0.20;0.20;;;;;;;;;;5070222;28;20052;-88
2022/10/15 14:08:01;;;;;;;0.30;0.10;;;;;;;;;;5076633;28;20056;-86
2022/10/15 14:10:32;;;;;;;0.32;0.32;;;;;;;;;;5065772;28;20052;-86
2022/10/15 14:13:00;;;;;;;0.05;0.05;;;;;;;;;;5063099;28;20040;-86
2022/10/15 14:15:42;;;;;;;0.47;0.20;;;;;;;;;;5059436;28;20048;-87
2022/10/15 14:18:11;;;;;;;0.35;0.15;;;;;;;;;;5045602;28;20068;-88
2022/10/15 14:20:43;;;;;;;0.10;0.10;;;;;;;;;;5059477;28;20040;-85
2022/10/15 14:23:16;;;;;;;0.40;0.20;;;;;;;;;;5064095;28;20047;-85
2022/10/15 14:25:52;;;;;;;0.10;0.10;;;;;;;;;;5074213;28;20053;-87
2022/10/15 14:28:21;;;;;;;0.15;0.15;;;;;;;;;;5065645;28;20048;-86
2022/10/15 14:30:50;;;;;;;0.52;0.20;;;;;;;;;;5054843;28;20049;-85
2022/10/15 14:33:32;;;;;;;0.30;0.20;;;;;;;;;;5071213;28;20040;-85
2022/10/15 14:36:08;;;;;;;0.00;0.00;;;;;;;;;;5062414;28;20052;-86
2022/10/15 14:38:37;;;;;;;0.55;0.30;;;;;;;;;;5062362;28;20060;-85
2022/10/15 14:41:18;;;;;;;0.32;0.10;;;;;;;;;;5058305;28;20044;-85
2022/10/15 14:43:47;;;;;;;0.30;0.30;;;;;;;;;;5057531;28;20389;-84
2022/10/15 14:46:17;;;;;;;1.15;0.57;;;;;;;;;;5057752;28;20060;-84
2022/10/15 14:48:46;;;;;;;0.20;0.20;;;;;;;;;;5061932;28;20041;-82
2022/10/15 14:51:16;;;;;;;0.15;0.15;;;;;;;;;;5064451;28;20056;-82
2022/10/15 14:53:46;;;;;;;0.70;0.20;;;;;;;;;;5043591;28;20376;-81
2022/10/15 14:56:19;;;;;;;0.38;0.22;;;;;;;;;;5062609;28;20052;-82
2022/10/15 14:58:50;;;;;;;0.63;0.20;;;;;;;;;;5067585;28;20044;-83
2022/10/15 15:01:20;;;;;;;0.30;0.20;;;;;;;;;;5043878;28;20049;-83
2022/10/15 15:03:52;;;;;;;0.20;0.20;;;;;;;;;;5059651;28;20515;-83
2022/10/15 15:06:21;;;;;;;0.15;0.15;;;;;;;;;;5059542;28;20393;-81
2022/10/15 15:08:49;;;;;;;0.35;0.35;;;;;;;;;;5057130;28;20052;-82